Time;durP1;ratioP1;P1;durP2;ratioP2;P2;SDS_P1;SDS_P2;PMS_P1;PMS_P2;Temp;Humidity;BMP_temperature;BMP_pressure;BME280_temperature;BME280_humidity;BME280_pressure;Samples;Min_cycle;Max_cycle;Signal;HPM_P1;HPM_P2
2021/07/10 00:01:11;;;;;;;3.15;2.58;;;;;;;13.10;100.00;96322.19;4995313;28;20426;-74
2021/07/10 00:03:37;;;;;;;2.97;2.60;;;;;;;13.10;100.00;96319.59;4995249;28;20792;-75
2021/07/10 00:06:02;;;;;;;4.60;3.58;;;;;;;13.15;100.00;96312.31;4995412;28;20410;-74
2021/07/10 00:08:28;;;;;;;3.97;3.47;;;;;;;13.24;100.00;96313.53;4995114;28;20438;-74
2021/07/10 00:10:53;;;;;;;5.43;3.27;;;;;;;13.31;100.00;96310.44;4995120;28;20456;-74
2021/07/10 00:13:19;;;;;;;2.90;2.70;;;;;;;13.36;100.00;96298.91;4995253;28;20433;-74
2021/07/10 00:15:45;;;;;;;3.13;2.65;;;;;;;13.38;100.00;96295.25;4993728;28;20422;-74
2021/07/10 00:18:12;;;;;;;5.22;3.58;;;;;;;13.37;100.00;96292.75;4994900;28;20430;-74
2021/07/10 00:20:38;;;;;;;5.63;3.20;;;;;;;13.31;100.00;96291.38;4995173;28;20908;-74
2021/07/10 00:23:03;;;;;;;7.83;3.00;;;;;;;13.35;100.00;96292.00;4994840;28;20414;-74
2021/07/10 00:25:29;;;;;;;18.27;3.33;;;;;;;13.27;100.00;96300.31;4995087;28;20430;-75
2021/07/10 00:27:55;;;;;;;3.27;2.97;;;;;;;13.29;100.00;96301.91;4993564;28;20429;-75
2021/07/10 00:30:21;;;;;;;3.17;2.80;;;;;;;13.37;100.00;96292.75;4994940;28;20904;-74
2021/07/10 00:32:48;;;;;;;3.40;3.10;;;;;;;13.42;100.00;96288.94;4993460;28;20433;-74
2021/07/10 00:35:15;;;;;;;5.28;2.90;;;;;;;13.39;100.00;96283.09;4994737;28;20780;-75
2021/07/10 00:37:41;;;;;;;4.22;2.80;;;;;;;13.36;100.00;96278.91;4994805;28;20434;-74
2021/07/10 00:40:09;;;;;;;5.93;3.05;;;;;;;13.38;100.00;96278.81;4993237;28;20449;-74
2021/07/10 00:42:34;;;;;;;2.58;2.38;;;;;;;13.37;100.00;96277.97;4994484;28;20418;-74
2021/07/10 00:45:00;;;;;;;2.65;2.40;;;;;;;13.40;100.00;96276.94;4994476;28;20480;-74
2021/07/10 00:47:26;;;;;;;4.70;2.40;;;;;;;13.40;100.00;96274.34;4994375;28;20426;-75
2021/07/10 00:49:52;;;;;;;6.07;2.50;;;;;;;13.29;100.00;96262.03;4993093;28;20458;-74
2021/07/10 00:52:18;;;;;;;4.57;2.58;;;;;;;13.25;100.00;96260.59;4994635;28;20423;-74
2021/07/10 00:54:43;;;;;;;7.03;2.43;;;;;;;13.29;100.00;96257.66;4994282;28;20495;-74
2021/07/10 00:57:10;;;;;;;4.03;2.65;;;;;;;12.93;100.00;96260.03;4994116;28;20423;-74
2021/07/10 00:59:36;;;;;;;14.90;2.87;;;;;;;12.67;100.00;96257.31;4994067;28;20422;-75
2021/07/10 01:02:03;;;;;;;5.80;3.05;;;;;;;12.76;100.00;96251.56;4994491;28;20433;-74
2021/07/10 01:04:28;;;;;;;3.60;2.95;;;;;;;12.90;100.00;96260.22;4994372;28;20418;-74
2021/07/10 01:06:55;;;;;;;5.50;2.90;;;;;;;12.87;100.00;96252.63;4994075;28;20950;-75
2021/07/10 01:09:20;;;;;;;13.10;3.10;;;;;;;12.71;100.00;96258.78;4993957;28;20509;-74
2021/07/10 01:11:46;;;;;;;8.67;3.20;;;;;;;12.60;100.00;96254.28;4992766;28;20453;-75
2021/07/10 01:14:11;;;;;;;2.80;2.60;;;;;;;12.67;100.00;96252.13;4994188;28;20418;-74
2021/07/10 01:16:37;;;;;;;3.90;2.90;;;;;;;12.76;100.00;96248.97;4992577;28;20473;-75
2021/07/10 01:19:02;;;;;;;4.83;2.80;;;;;;;12.79;100.00;96240.97;4992778;28;20422;-74
2021/07/10 01:21:29;;;;;;;3.37;3.03;;;;;;;12.87;100.00;96239.63;4993728;28;20450;-75
2021/07/10 01:23:55;;;;;;;3.85;2.90;;;;;;;12.90;100.00;96239.41;4993738;28;20418;-74
2021/07/10 01:26:20;;;;;;;3.90;2.60;;;;;;;12.93;100.00;96237.47;4993599;28;20429;-74
2021/07/10 01:28:46;;;;;;;4.40;2.60;;;;;;;12.91;100.00;96243.72;4993634;28;20414;-75
2021/07/10 01:31:12;;;;;;;4.25;2.83;;;;;;;12.93;100.00;96237.47;4993546;28;20410;-74
2021/07/10 01:33:38;;;;;;;2.77;2.53;;;;;;;12.89;100.00;96237.75;4993569;28;20933;-75
2021/07/10 01:36:04;;;;;;;3.92;2.80;;;;;;;12.91;100.00;96234.16;4993392;28;20768;-74
2021/07/10 01:38:31;;;;;;;3.30;3.00;;;;;;;12.92;100.00;96232.38;4993379;28;20426;-75
2021/07/10 01:40:57;;;;;;;3.50;3.20;;;;;;;12.86;100.00;96224.97;4993289;28;20464;-74
2021/07/10 01:43:23;;;;;;;4.13;3.00;;;;;;;12.93;100.00;96223.63;4993304;28;20827;-74
2021/07/10 01:45:48;;;;;;;3.47;2.80;;;;;;;12.95;100.00;96225.22;4993759;28;20419;-74
2021/07/10 01:48:15;;;;;;;3.47;2.90;;;;;;;12.96;100.00;96220.84;4993287;28;20410;-75
2021/07/10 01:50:42;;;;;;;4.50;2.90;;;;;;;12.96;100.00;96219.06;4991514;28;20422;-74
2021/07/10 01:53:10;;;;;;;3.63;3.20;;;;;;;12.98;100.00;96221.59;4993238;28;20423;-74
2021/07/10 01:55:37;;;;;;;3.70;2.90;;;;;;;13.03;100.00;96217.75;4992038;28;20912;-74
2021/07/10 01:58:03;;;;;;;2.50;2.30;;;;;;;13.03;100.00;96214.31;4993301;28;20430;-74
2021/07/10 02:00:31;;;;;;;2.85;2.45;;;;;;;13.06;100.00;96217.53;4992923;28;21002;-74
2021/07/10 02:02:57;;;;;;;2.58;2.38;;;;;;;13.02;100.00;96218.69;4992891;28;20493;-74
2021/07/10 02:05:24;;;;;;;2.42;1.92;;;;;;;13.05;100.00;96212.41;4992987;28;20948;-74
2021/07/10 02:07:50;;;;;;;2.53;2.33;;;;;;;13.02;100.00;96210.06;4992900;28;20472;-74
2021/07/10 02:10:18;;;;;;;4.30;2.05;;;;;;;13.03;100.00;96211.72;4992742;28;20469;-74
2021/07/10 02:12:46;;;;;;;2.55;2.13;;;;;;;12.97;100.00;96193.91;4991876;28;20526;-74
2021/07/10 02:15:12;;;;;;;4.55;2.55;;;;;;;12.93;100.00;96195.88;4991515;28;20466;-74
2021/07/10 02:17:38;;;;;;;4.50;2.80;;;;;;;12.79;100.00;96194.19;4992606;28;20920;-74
2021/07/10 02:20:06;;;;;;;6.13;2.70;;;;;;;12.73;100.00;96194.56;4992631;28;20425;-74
2021/07/10 02:22:31;;;;;;;9.90;2.63;;;;;;;12.50;100.00;96192.63;4992710;28;20517;-74
2021/07/10 02:24:56;;;;;;;13.03;2.53;;;;;;;12.37;100.00;96195.16;4992906;28;20501;-74
2021/07/10 02:27:22;;;;;;;3.00;2.53;;;;;;;12.32;100.00;96186.81;4991308;28;20865;-74
2021/07/10 02:29:48;;;;;;;3.53;2.67;;;;;;;12.44;100.00;96180.00;4992746;28;20410;-74
2021/07/10 02:32:14;;;;;;;2.70;2.50;;;;;;;12.55;100.00;96177.56;4992638;28;20773;-74
2021/07/10 02:34:39;;;;;;;3.65;2.83;;;;;;;12.60;100.00;96178.91;4992821;28;20418;-74
2021/07/10 02:37:05;;;;;;;5.30;2.50;;;;;;;12.66;100.00;96175.09;4991411;28;20489;-75
2021/07/10 02:42:52;;;;;;;7.05;2.50;;;;;;;12.11;100.00;96176.00;4993009;28;20422;-74
2021/07/10 02:45:20;;;;;;;7.17;3.10;;;;;;;12.10;100.00;96169.97;4992436;28;20908;-74
2021/07/10 02:47:46;;;;;;;7.72;3.05;;;;;;;12.06;100.00;96165.09;4992702;28;20449;-74
2021/07/10 02:50:14;;;;;;;7.50;2.78;;;;;;;12.10;100.00;96166.56;4992612;28;20521;-74
2021/07/10 02:52:41;;;;;;;2.75;2.42;;;;;;;12.22;100.00;96173.56;4992384;28;20418;-74
2021/07/10 02:55:07;;;;;;;3.22;2.92;;;;;;;12.32;100.00;96172.06;4991344;28;20426;-74
2021/07/10 02:57:32;;;;;;;14.98;3.05;;;;;;;12.37;100.00;96168.34;4992157;28;20430;-74
2021/07/10 02:59:59;;;;;;;29.13;3.15;;;;;;;12.21;100.00;96163.28;4992215;28;20427;-74
2021/07/10 03:02:26;;;;;;;7.60;2.95;;;;;;;12.26;100.00;96176.81;4992904;28;20425;-74
2021/07/10 03:04:51;;;;;;;15.60;2.50;;;;;;;12.25;100.00;96172.56;4996575;28;20422;-74
2021/07/10 03:07:16;;;;;;;10.30;2.83;;;;;;;12.33;100.00;96162.50;4994972;28;20509;-74
2021/07/10 03:09:42;;;;;;;2.50;2.30;;;;;;;12.42;100.00;96166.28;4994934;28;20959;-74
2021/07/10 03:12:08;;;;;;;8.13;2.93;;;;;;;12.33;100.00;96163.34;4996237;28;20413;-75
2021/07/10 03:14:33;;;;;;;2.90;2.57;;;;;;;12.40;100.00;96162.97;4996123;28;20780;-74
2021/07/10 03:16:59;;;;;;;9.87;2.77;;;;;;;12.47;100.00;96159.88;4995952;28;20497;-74
2021/07/10 03:19:25;;;;;;;8.00;3.07;;;;;;;12.43;100.00;96162.78;4996003;28;20498;-74
2021/07/10 03:21:51;;;;;;;36.33;3.60;;;;;;;12.29;100.00;96161.03;4996326;28;20418;-75
2021/07/10 03:24:16;;;;;;;13.10;2.83;;;;;;;12.20;100.00;96161.59;4996023;28;20840;-75
2021/07/10 03:26:42;;;;;;;4.17;2.50;;;;;;;12.22;100.00;96170.97;4995885;28;20446;-74
2021/07/10 03:29:07;;;;;;;14.10;2.60;;;;;;;12.26;100.00;96161.22;4995749;28;20410;-74
2021/07/10 03:31:33;;;;;;;2.63;2.33;;;;;;;12.30;100.00;96168.72;4996132;28;20457;-75
2021/07/10 03:33:59;;;;;;;2.93;2.63;;;;;;;12.39;100.00;96163.91;4995821;28;20418;-75
2021/07/10 03:36:28;;;;;;;4.45;2.53;;;;;;;12.40;100.00;96158.59;4995981;28;20429;-74
2021/07/10 03:38:54;;;;;;;4.07;2.80;;;;;;;12.46;100.00;96159.94;4995811;28;20908;-74
2021/07/10 03:41:21;;;;;;;8.55;2.83;;;;;;;12.45;100.00;96161.72;4994331;28;20514;-75
2021/07/10 03:43:46;;;;;;;3.72;2.72;;;;;;;12.48;100.00;96158.09;4995620;28;20418;-75
2021/07/10 03:46:12;;;;;;;8.85;2.65;;;;;;;12.44;100.00;96156.63;4995461;28;20861;-74
2021/07/10 03:48:37;;;;;;;8.27;2.83;;;;;;;12.43;100.00;96150.59;4994256;28;20473;-74
2021/07/10 03:51:03;;;;;;;21.15;3.22;;;;;;;12.17;100.00;96152.25;4995525;28;20473;-74
2021/07/10 03:53:30;;;;;;;14.95;3.05;;;;;;;12.24;100.00;96144.94;4995725;28;20889;-74
2021/07/10 03:55:57;;;;;;;14.40;2.58;;;;;;;12.15;100.00;96145.50;4995341;28;20414;-74
2021/07/10 03:58:22;;;;;;;23.80;3.25;;;;;;;12.16;100.00;96149.75;4994072;28;20426;-74
2021/07/10 04:00:48;;;;;;;4.47;2.83;;;;;;;12.24;100.00;96140.56;4994201;28;20420;-74
2021/07/10 04:03:13;;;;;;;8.90;2.35;;;;;;;12.31;100.00;96152.22;4995244;28;20422;-75
2021/07/10 04:05:38;;;;;;;4.57;2.40;;;;;;;12.26;100.00;96158.63;4993922;28;20422;-75
2021/07/10 04:08:04;;;;;;;14.57;2.70;;;;;;;12.14;100.00;96149.84;4995216;28;20414;-74
2021/07/10 04:10:31;;;;;;;25.33;3.03;;;;;;;12.00;100.00;96157.66;4994099;28;20428;-75
2021/07/10 04:12:56;;;;;;;9.77;2.87;;;;;;;12.13;100.00;96149.97;4995172;28;20414;-75
2021/07/10 04:15:22;;;;;;;8.20;2.63;;;;;;;12.23;100.00;96149.25;4994917;28;20434;-74
2021/07/10 04:17:48;;;;;;;5.00;2.50;;;;;;;12.28;100.00;96146.41;4994959;28;20426;-75
2021/07/10 04:20:15;;;;;;;15.20;2.67;;;;;;;12.35;100.00;96143.31;4994880;28;20749;-75
2021/07/10 04:22:41;;;;;;;12.82;2.42;;;;;;;12.40;100.00;96152.56;4994992;28;20480;-74
2021/07/10 04:25:09;;;;;;;8.20;3.10;;;;;;;12.42;100.00;96150.69;4993493;28;20466;-75
2021/07/10 04:27:38;;;;;;;2.83;2.50;;;;;;;12.42;100.00;96156.75;4994625;28;20430;-75
2021/07/10 04:30:05;;;;;;;5.90;2.90;;;;;;;12.42;100.00;96153.28;4995245;28;20422;-74
2021/07/10 04:32:30;;;;;;;4.63;2.80;;;;;;;12.47;100.00;96148.66;4994687;28;20446;-75
2021/07/10 04:34:56;;;;;;;20.67;3.20;;;;;;;12.29;100.00;96151.47;4993500;28;20465;-75
2021/07/10 04:37:21;;;;;;;5.37;2.87;;;;;;;12.30;100.00;96153.13;4993330;28;20430;-74
2021/07/10 04:39:47;;;;;;;55.77;3.67;;;;;;;12.15;100.00;96154.13;4993305;28;20422;-75
2021/07/10 04:42:13;;;;;;;14.80;3.07;;;;;;;12.17;100.00;96156.63;4994836;28;20932;-75
2021/07/10 04:44:39;;;;;;;5.83;3.10;;;;;;;12.21;100.00;96158.94;4994588;28;20477;-74
2021/07/10 04:47:05;;;;;;;12.88;2.88;;;;;;;12.24;100.00;96153.56;4994442;28;20410;-75
2021/07/10 04:49:30;;;;;;;3.67;2.97;;;;;;;12.37;100.00;96161.38;4994631;28;20426;-74
2021/07/10 04:51:56;;;;;;;3.00;2.70;;;;;;;12.46;100.00;96159.94;4994666;28;20414;-75
2021/07/10 04:54:21;;;;;;;7.87;2.73;;;;;;;12.47;100.00;96157.28;4993126;28;20542;-74
2021/07/10 04:56:47;;;;;;;5.15;3.10;;;;;;;12.42;100.00;96161.09;4994328;28;20436;-75
2021/07/10 04:59:12;;;;;;;11.03;3.00;;;;;;;12.50;100.00;96159.69;4992853;28;20422;-74
2021/07/10 05:01:39;;;;;;;4.80;2.80;;;;;;;12.52;100.00;96156.97;5047082;23;20468;-76
2021/07/10 05:04:04;;;;;;;13.88;3.25;;;;;;;12.54;100.00;96155.94;5004503;28;20497;-76
2021/07/10 05:06:30;;;;;;;6.10;2.97;;;;;;;12.48;100.00;96152.91;5017534;28;20491;-76
2021/07/10 05:08:55;;;;;;;19.53;3.60;;;;;;;12.57;100.00;96155.75;5004338;28;20415;-76
2021/07/10 05:11:21;;;;;;;10.65;2.55;;;;;;;12.57;100.00;96160.94;5012508;28;20417;-75
2021/07/10 05:13:46;;;;;;;7.95;3.10;;;;;;;12.36;100.00;96162.31;5011622;28;20909;-76
2021/07/10 05:16:11;;;;;;;3.00;2.70;;;;;;;12.47;100.00;96162.47;5011905;28;20420;-76
2021/07/10 05:18:38;;;;;;;3.93;2.60;;;;;;;12.55;100.00;96164.56;5010377;28;20417;-76
2021/07/10 05:21:04;;;;;;;3.43;2.37;;;;;;;12.69;100.00;96161.91;5004072;28;20417;-75
2021/07/10 05:23:29;;;;;;;4.73;2.80;;;;;;;12.68;100.00;96159.41;5003352;28;20449;-75
2021/07/10 05:25:54;;;;;;;6.33;2.90;;;;;;;12.69;100.00;96164.53;5001013;28;20432;-76
2021/07/10 05:28:20;;;;;;;3.00;2.70;;;;;;;12.87;100.00;96162.50;5001997;28;20414;-75
2021/07/10 05:30:47;;;;;;;6.17;3.37;;;;;;;13.00;100.00;96157.31;5008556;28;20444;-75
2021/07/10 05:33:14;;;;;;;6.47;3.83;;;;;;;13.08;100.00;96165.41;5012182;28;20420;-75
2021/07/10 05:35:41;;;;;;;4.55;3.90;;;;;;;13.20;100.00;96163.75;5011906;28;20424;-76
2021/07/10 05:38:07;;;;;;;5.70;3.55;;;;;;;13.23;100.00;96156.63;5011782;28;20769;-76
2021/07/10 05:40:32;;;;;;;6.45;3.40;;;;;;;13.21;100.00;96160.25;5003738;28;20425;-76
2021/07/10 05:42:58;;;;;;;5.53;3.80;;;;;;;13.07;100.00;96153.38;5011824;28;20420;-76
2021/07/10 05:45:23;;;;;;;4.10;3.70;;;;;;;13.20;100.00;96155.97;5011596;28;20428;-76
2021/07/10 05:47:49;;;;;;;3.50;3.23;;;;;;;13.19;100.00;96147.34;5011927;28;20756;-76
2021/07/10 05:50:15;;;;;;;3.87;3.50;;;;;;;13.27;100.00;96145.09;5011811;28;20455;-76
2021/07/10 05:52:42;;;;;;;4.72;3.90;;;;;;;13.36;100.00;96140.22;5003671;28;20464;-76
2021/07/10 05:55:08;;;;;;;4.70;4.20;;;;;;;13.33;100.00;96136.03;5011491;28;20417;-76
2021/07/10 05:57:34;;;;;;;4.87;4.37;;;;;;;13.36;100.00;96143.63;5011648;28;20491;-76
2021/07/10 06:02:34;;;;;;;6.25;4.25;;;;;;;13.48;100.00;96136.75;4440798;23;20528;-76
2021/07/10 06:05:00;;;;;;;5.07;4.28;;;;;;;13.55;100.00;96144.03;5031031;28;20502;-75
2021/07/10 06:07:25;;;;;;;4.25;3.85;;;;;;;13.68;100.00;96140.59;5024900;28;20427;-76
2021/07/10 06:09:52;;;;;;;4.70;4.10;;;;;;;13.82;100.00;96150.06;5030681;28;20988;-77
2021/07/10 06:12:18;;;;;;;6.00;3.33;;;;;;;13.96;100.00;96153.34;5030760;28;20426;-77
2021/07/10 06:14:43;;;;;;;4.57;3.78;;;;;;;13.94;100.00;96146.56;5031333;28;20423;-77
2021/07/10 06:17:08;;;;;;;4.60;3.73;;;;;;;13.88;100.00;96147.03;5030962;28;20422;-76
2021/07/10 06:19:34;;;;;;;5.93;3.70;;;;;;;13.86;100.00;96141.91;5030775;28;20931;-76
2021/07/10 06:21:59;;;;;;;4.83;3.80;;;;;;;14.07;100.00;96138.75;5030880;28;20486;-77
2021/07/10 06:24:26;;;;;;;5.32;3.83;;;;;;;14.56;100.00;96135.25;5029400;28;20419;-76
2021/07/10 06:26:53;;;;;;;3.55;3.25;;;;;;;14.59;100.00;96135.88;5030458;28;20419;-77
2021/07/10 06:29:18;;;;;;;3.78;3.30;;;;;;;14.76;100.00;96143.28;5029283;28;20423;-77
2021/07/10 06:31:44;;;;;;;4.20;3.80;;;;;;;14.86;100.00;96137.38;5030731;28;20426;-76
2021/07/10 06:34:09;;;;;;;3.70;3.37;;;;;;;14.97;100.00;96140.03;5030517;28;20498;-76
2021/07/10 06:36:35;;;;;;;4.90;3.40;;;;;;;15.22;100.00;96136.41;5028934;28;20415;-76
2021/07/10 06:39:00;;;;;;;4.13;3.57;;;;;;;15.56;100.00;96129.47;5030688;28;20461;-77
2021/07/10 06:41:26;;;;;;;3.97;3.30;;;;;;;16.00;100.00;96133.03;5030496;28;20907;-76
2021/07/10 06:43:52;;;;;;;3.67;3.35;;;;;;;16.46;100.00;96126.75;5030484;28;20434;-76
2021/07/10 06:46:18;;;;;;;11.20;3.63;;;;;;;16.79;97.74;96125.81;5030274;28;20469;-76
2021/07/10 06:48:43;;;;;;;4.33;3.53;;;;;;;16.96;94.71;96132.31;5029233;28;20928;-76
2021/07/10 06:51:09;;;;;;;3.50;3.20;;;;;;;16.89;93.55;96129.34;5030419;28;20415;-76
2021/07/10 06:53:34;;;;;;;4.55;3.13;;;;;;;17.20;92.72;96121.56;5030743;28;20507;-77
2021/07/10 06:56:00;;;;;;;4.60;3.33;;;;;;;17.42;93.00;96124.03;5030244;28;20419;-77
2021/07/10 06:58:25;;;;;;;6.40;3.20;;;;;;;17.64;90.71;96130.09;5030054;28;20437;-76
2021/07/10 07:00:54;;;;;;;6.10;2.88;;;;;;;17.84;90.78;96128.41;5026264;28;21305;-76
2021/07/10 07:03:19;;;;;;;4.40;3.00;;;;;;;18.18;92.81;96122.88;5010952;28;20424;-77
2021/07/10 07:05:45;;;;;;;5.27;3.13;;;;;;;18.48;88.79;96120.16;5026170;28;20407;-76
2021/07/10 07:08:10;;;;;;;3.53;2.87;;;;;;;18.21;84.56;96114.75;5030222;28;20849;-77
2021/07/10 07:10:35;;;;;;;4.83;3.37;;;;;;;18.44;85.68;96108.28;5030531;28;20557;-76
2021/07/10 07:13:01;;;;;;;5.07;3.33;;;;;;;18.55;87.94;96116.03;5030526;28;20788;-76
2021/07/10 07:15:26;;;;;;;3.63;3.13;;;;;;;18.95;87.90;96112.47;5030242;28;20493;-76
2021/07/10 07:17:53;;;;;;;5.38;3.30;;;;;;;19.29;84.05;96099.69;5030474;28;20426;-76
2021/07/10 07:20:18;;;;;;;3.97;3.17;;;;;;;19.05;81.62;96105.38;5029216;28;20505;-76
2021/07/10 07:22:47;;;;;;;4.90;3.10;;;;;;;19.47;82.15;96098.97;5029468;28;20510;-76
2021/07/10 07:25:14;;;;;;;6.20;2.80;;;;;;;19.50;75.62;96091.59;5030220;28;20426;-76
2021/07/10 07:27:39;;;;;;;4.05;2.97;;;;;;;19.55;74.35;96088.56;5031186;28;20426;-77
2021/07/10 07:30:06;;;;;;;4.35;2.80;;;;;;;19.80;74.88;96090.56;5031330;28;20793;-78
2021/07/10 07:32:32;;;;;;;3.83;3.00;;;;;;;19.45;77.09;96083.34;5018241;28;20431;-77
2021/07/10 07:34:58;;;;;;;8.32;3.28;;;;;;;19.59;76.85;96087.31;5011279;28;20496;-77
2021/07/10 07:37:24;;;;;;;4.05;3.10;;;;;;;19.39;77.69;96081.28;5010021;28;20918;-77
2021/07/10 07:39:49;;;;;;;6.33;3.50;;;;;;;19.76;75.45;96088.34;5011715;28;20420;-77
2021/07/10 07:42:15;;;;;;;4.60;3.60;;;;;;;19.77;77.93;96084.78;5010823;28;20499;-77
2021/07/10 07:44:41;;;;;;;9.48;3.10;;;;;;;19.95;74.57;96079.53;5010036;28;20467;-77
2021/07/10 07:47:08;;;;;;;3.70;3.00;;;;;;;19.79;75.29;96081.00;5009272;28;20512;-77
2021/07/10 07:49:33;;;;;;;6.72;2.97;;;;;;;20.08;75.91;96076.59;5011756;28;20520;-77
2021/07/10 07:52:00;;;;;;;4.47;2.50;;;;;;;20.59;72.51;96081.25;5032636;28;20952;-77
2021/07/10 07:54:27;;;;;;;4.30;2.90;;;;;;;20.63;72.85;96079.97;5032902;28;20419;-77
2021/07/10 07:56:52;;;;;;;4.82;2.78;;;;;;;20.95;69.75;96082.06;5033510;28;20423;-77
2021/07/10 07:59:18;;;;;;;4.97;2.90;;;;;;;20.63;70.13;96079.16;5033283;28;20923;-76
2021/07/10 08:01:43;;;;;;;3.63;2.70;;;;;;;20.71;71.44;96082.66;5033664;28;20422;-74
2021/07/10 08:04:08;;;;;;;3.30;2.65;;;;;;;21.04;69.43;96075.03;5032042;28;20473;-75
2021/07/10 08:06:34;;;;;;;3.43;2.37;;;;;;;21.47;69.56;96076.03;5033319;28;20915;-75
2021/07/10 08:09:01;;;;;;;4.65;2.95;;;;;;;21.72;66.94;96074.31;5033448;28;20433;-78
2021/07/10 08:16:29;;;;;;;3.17;2.40;;;;;;;21.78;64.16;96076.34;5011781;28;20428;-77
2021/07/10 08:18:55;;;;;;;3.13;2.30;;;;;;;22.16;62.37;96069.72;5012372;28;20425;-77
2021/07/10 08:21:20;;;;;;;3.00;2.33;;;;;;;22.20;63.16;96070.25;5013240;28;20408;-78
2021/07/10 08:23:46;;;;;;;3.03;2.40;;;;;;;22.44;59.50;96072.94;5025561;28;20500;-76
2021/07/10 08:26:13;;;;;;;4.32;2.70;;;;;;;22.43;60.64;96070.44;5008769;28;20421;-76
2021/07/10 08:28:39;;;;;;;3.40;2.30;;;;;;;22.44;59.98;96062.38;5012028;28;20814;-75
2021/07/10 08:31:04;;;;;;;3.38;2.63;;;;;;;22.25;60.11;96064.47;5012874;28;20409;-75
2021/07/10 08:33:30;;;;;;;3.50;2.50;;;;;;;21.82;59.30;96053.94;5028777;28;20498;-75
2021/07/10 08:35:55;;;;;;;3.83;2.40;;;;;;;22.34;60.92;96053.78;5028176;28;20431;-76
2021/07/10 08:38:21;;;;;;;2.80;2.30;;;;;;;22.60;61.27;96052.84;5013579;28;20890;-77
2021/07/10 08:40:46;;;;;;;3.63;2.22;;;;;;;22.92;63.39;96055.53;5028668;28;20467;-77
2021/07/10 08:43:13;;;;;;;4.30;2.60;;;;;;;22.90;61.59;96054.00;5028743;28;20789;-78
2021/07/10 08:45:53;;;;;;;4.45;2.58;;;;;;;22.86;58.71;96050.84;5038489;28;20428;-77
2021/07/10 08:48:26;;;;;;;3.17;2.23;;;;;;;22.93;58.87;96048.41;5018761;28;20853;-77
2021/07/10 08:50:52;;;;;;;3.95;2.65;;;;;;;23.06;60.72;96043.44;5037096;28;20417;-76
2021/07/10 08:53:18;;;;;;;5.72;2.60;;;;;;;23.01;62.51;96043.13;5023939;28;20455;-77
2021/07/10 08:55:43;;;;;;;4.37;2.73;;;;;;;22.77;64.46;96043.94;5036116;28;20428;-77
2021/07/10 08:58:09;;;;;;;4.73;2.93;;;;;;;22.90;68.39;96038.16;5035690;28;20427;-78
2021/07/10 09:00:38;;;;;;;4.13;2.67;;;;;;;23.02;63.18;96039.47;5027148;28;20417;-78
2021/07/10 09:03:04;;;;;;;3.70;2.90;;;;;;;22.80;64.84;96026.91;5028332;28;20779;-77
2021/07/10 09:05:30;;;;;;;4.60;2.90;;;;;;;22.50;62.52;96041.59;5012179;28;20436;-77
2021/07/10 09:08:27;;;;;;;4.27;2.80;;;;;;;22.67;65.84;96046.72;5012815;28;20821;-77
2021/07/10 09:10:56;;;;;;;3.70;2.97;;;;;;;22.79;63.45;96039.31;4936148;29;20442;-76
2021/07/10 09:13:30;;;;;;;3.90;2.67;;;;;;;23.19;61.84;96041.13;4995181;28;20801;-77
2021/07/10 09:16:05;;;;;;;5.03;2.60;;;;;;;23.38;58.86;96036.44;5012657;28;20839;-77
2021/07/10 09:18:39;;;;;;;3.50;2.30;;;;;;;23.66;59.40;96042.16;5011481;28;20424;-77
2021/07/10 09:21:05;;;;;;;4.00;2.70;;;;;;;23.70;59.57;96040.03;5012503;28;20427;-78
2021/07/10 09:23:38;;;;;;;3.03;2.43;;;;;;;23.65;58.11;96038.66;5013281;28;20503;-79
2021/07/10 09:26:15;;;;;;;3.70;2.40;;;;;;;23.73;56.95;96031.72;5011803;28;20941;-78
2021/07/10 09:28:42;;;;;;;3.40;2.50;;;;;;;23.50;57.22;96036.91;5012115;28;20463;-78
2021/07/10 09:31:34;;;;;;;3.10;2.15;;;;;;;23.69;55.64;96038.38;5018015;23;20477;-78
2021/07/10 09:34:05;;;;;;;3.00;2.08;;;;;;;23.91;54.95;96040.25;5011247;28;20424;-77
2021/07/10 09:36:30;;;;;;;2.53;2.30;;;;;;;24.07;54.05;96037.53;5012948;28;20499;-77
2021/07/10 09:38:56;;;;;;;2.33;2.13;;;;;;;24.27;55.15;96031.81;5012668;28;20516;-77
2021/07/10 09:41:27;;;;;;;3.50;2.35;;;;;;;23.95;55.34;96030.97;5012563;28;20910;-77
2021/07/10 09:44:04;;;;;;;4.68;2.60;;;;;;;23.98;58.25;96029.81;5012450;28;20417;-77
2021/07/10 09:46:30;;;;;;;4.30;2.67;;;;;;;24.02;55.94;96028.47;5011679;28;20421;-77
2021/07/10 09:48:56;;;;;;;3.13;2.58;;;;;;;23.98;58.26;96028.00;5011725;28;20431;-77
2021/07/10 09:51:25;;;;;;;3.43;2.30;;;;;;;23.99;57.02;96024.38;5011924;28;20491;-77
2021/07/10 09:53:59;;;;;;;3.72;2.35;;;;;;;23.83;54.10;96009.38;5013097;28;20409;-77
2021/07/10 09:56:25;;;;;;;4.15;2.35;;;;;;;23.50;55.04;96015.75;5011221;28;20452;-77
2021/07/10 09:58:50;;;;;;;2.57;2.03;;;;;;;23.54;53.89;96009.97;5012930;28;20834;-77
2021/07/10 10:01:31;;;;;;;3.60;2.50;;;;;;;23.80;61.13;96009.72;5012272;28;20573;-79
2021/07/10 10:03:57;;;;;;;3.22;2.53;;;;;;;23.90;54.87;96001.59;5011149;28;20428;-78
2021/07/10 10:06:33;;;;;;;4.07;2.10;;;;;;;24.00;57.00;96007.50;5010659;28;20427;-78
2021/07/10 10:08:59;;;;;;;3.10;2.40;;;;;;;24.18;56.90;96009.03;5008483;28;20436;-77
2021/07/10 10:11:25;;;;;;;3.45;2.30;;;;;;;24.42;54.45;96008.09;5005517;28;20510;-77
2021/07/10 10:13:51;;;;;;;3.00;2.10;;;;;;;24.44;54.82;96003.44;5010378;28;20961;-77
2021/07/10 10:16:17;;;;;;;2.80;2.13;;;;;;;23.78;55.89;96001.16;5003196;28;20409;-77
2021/07/10 10:18:44;;;;;;;4.00;2.25;;;;;;;24.06;50.71;95996.19;5010532;28;20774;-77
2021/07/10 10:21:10;;;;;;;3.40;2.50;;;;;;;24.11;54.25;96001.81;5011841;28;20424;-77
2021/07/10 10:23:35;;;;;;;3.40;2.47;;;;;;;24.39;54.43;95996.00;5010973;28;20421;-78
2021/07/10 10:26:01;;;;;;;3.30;1.95;;;;;;;24.46;51.32;95993.50;5007960;28;20927;-76
2021/07/10 10:28:31;;;;;;;4.20;2.40;;;;;;;24.52;56.04;95993.59;5002283;28;20976;-77
2021/07/10 10:30:57;;;;;;;4.10;2.10;;;;;;;24.46;51.89;95991.66;5009234;28;20428;-76
2021/07/10 10:33:23;;;;;;;2.53;1.97;;;;;;;24.17;50.79;95984.38;5001193;28;20919;-76
2021/07/10 10:35:53;;;;;;;4.50;1.85;;;;;;;24.13;54.68;95985.72;5007083;28;20488;-76
2021/07/10 10:38:20;;;;;;;3.30;1.98;;;;;;;24.07;52.00;95986.47;5011008;28;20417;-77
2021/07/10 10:40:48;;;;;;;2.40;1.67;;;;;;;23.82;52.74;95975.19;5004507;28;20904;-77
2021/07/10 10:43:15;;;;;;;2.50;1.70;;;;;;;23.70;52.51;95972.09;4989960;28;20480;-76
2021/07/10 10:45:41;;;;;;;1.63;1.40;;;;;;;23.41;53.58;95970.03;5009936;28;20617;-76
2021/07/10 10:48:07;;;;;;;2.95;2.00;;;;;;;23.57;52.70;95969.16;5009423;28;20424;-76
2021/07/10 10:50:35;;;;;;;3.00;1.97;;;;;;;23.70;55.64;95966.00;5010716;28;20431;-77
2021/07/10 10:53:04;;;;;;;3.90;2.10;;;;;;;23.84;56.51;95959.94;5010575;28;20428;-77
2021/07/10 10:55:37;;;;;;;4.53;2.13;;;;;;;23.83;50.86;95950.38;5010609;28;21117;-77
2021/07/10 10:58:15;;;;;;;3.33;2.20;;;;;;;24.15;54.26;95954.66;5010580;28;20409;-76
2021/07/10 11:00:42;;;;;;;5.85;1.80;;;;;;;24.21;50.57;95945.16;5010330;28;20503;-76
2021/07/10 11:03:09;;;;;;;3.13;2.05;;;;;;;24.25;50.90;95946.44;5010628;28;20409;-77
2021/07/10 11:05:53;;;;;;;2.42;1.70;;;;;;;24.40;48.19;95936.78;5009828;28;20444;-77
2021/07/10 11:08:32;;;;;;;2.85;1.85;;;;;;;24.75;48.67;95937.97;5010457;28;20424;-77
2021/07/10 11:11:37;;;;;;;3.03;1.93;;;;;;;24.46;50.65;95932.59;5011007;28;20810;-77
2021/07/10 11:14:28;;;;;;;2.90;2.08;;;;;;;24.28;48.70;95938.16;5010693;28;20818;-77
2021/07/10 11:17:10;;;;;;;2.10;1.90;;;;;;;24.60;56.38;95922.03;5008980;28;20464;-75
2021/07/10 11:19:53;;;;;;;2.65;1.70;;;;;;;24.49;49.55;95929.59;5001093;28;20422;-76
2021/07/10 11:22:56;;;;;;;6.25;1.92;;;;;;;24.38;48.21;95928.97;4991084;28;20484;-77
2021/07/10 11:26:01;;;;;;;2.58;1.70;;;;;;;23.97;51.87;95923.19;4993160;28;20433;-77
2021/07/10 11:28:33;;;;;;;3.03;2.00;;;;;;;24.05;56.08;95915.19;4994819;28;20985;-76
2021/07/10 11:31:00;;;;;;;3.70;2.07;;;;;;;24.03;49.77;95922.47;5009755;28;20488;-76
2021/07/10 11:33:54;;;;;;;3.75;2.30;;;;;;;23.65;53.70;95916.22;4994997;28;20861;-76
2021/07/10 11:36:59;;;;;;;1.95;1.70;;;;;;;23.46;52.49;95916.66;5002490;28;20414;-76
2021/07/10 11:39:56;;;;;;;2.37;1.80;;;;;;;23.48;52.87;95901.47;4983001;28;20434;-77